Toms River, NJ

10:10 PM EST on March 05, 2015 (GMT -0500)
Pine Lake Park | Change Station
CLOSE
Current Station
Personal Weather Station
Location: Manchester Twp. Toms River, NJ
Elevation: 76 ft
Nearby Weather Stations

Elev 76 ft 40.00 °N, 74.25 °W | Updated 1 second ago

Overcast
Overcast
21.1 °F
Feels Like 21 °F
N
0.0
Wind Variable Wind from NW
Gusts 0.0 mph

Today
High -- | Low -- °F
--% Chance of Precip.
Yesterday
High -- | Low -- °F
Precip. -- in
6:24 AM 5:53 PM
Full, 100% visible
Pressure 30.34 in
Visibility 10.0 miles
Clouds Scattered Clouds 5000 ft
Mostly Cloudy 7500 ft
Overcast 9000 ft
Windchill 21 °F
Dew Point 10 °F
Humidity 62%
Rainfall in
Snow Depth Not available.
UV 0 out of 12
Pollen .50 out of 12
Air Quality Not available.
Flu Activity Not available.
METAR KMJX 060255Z AUTO 31009KT 10SM SCT050 BKN075 OVC090 M07/M09 A3034 RMK AO1 52027

More Conditions Fewer Conditions

Pressure 30.34 in
Visibility 10.0 miles
Clouds Scattered Clouds 5000 ft
Mostly Cloudy 7500 ft
Overcast 9000 ft
Windchill 21 °F
Dew Point 10 °F
Humidity 62%
Rainfall in
Snow Depth Not available.
UV 0 out of 12
Pollen .50 out of 12
Air Quality Not available.
Flu Activity Not available.
METAR KMJX 060255Z AUTO 31009KT 10SM SCT050 BKN075 OVC090 M07/M09 A3034 RMK AO1 52027

More Conditions Fewer Conditions

10-Day Weather Forecast

Almanac

Astronomy

Mar. 05, 2015 Rise Set
Actual Time
Civil Twilight
Nautical Twilight
Astronomical Twilight
Moon
Length of Visible Light
Length of Day
Tomorrow will be .
, % of the Moon is Illuminated

Today's Extremes

State Highs State Lows

Community

WunderPhotos

Upload Photos

1,803,158 photos uploaded!

WunderBlogs® & News

Nearby

Air Quality

  Air Quality AQ Index Pollutant
Not available.

Snow Depth

Station Depth Elevation

Earthquake Activity

City Distance Mag. Time & Date
Minimum magnitude displayed is 2.5.

Coastal Water Temperatures

Place Temperature

Nearby Weather Stations